sensor_id;sensor_type;location;lat;lon;timestamp;P1;durP1;ratioP1;P2;durP2;ratioP2
74233;SDS011;62591;55.764;37.718;2022-12-18T00:00:16;8.80;;;5.43;;
74233;SDS011;62591;55.764;37.718;2022-12-18T00:02:44;13.90;;;7.25;;
74233;SDS011;62591;55.764;37.718;2022-12-18T00:05:13;11.20;;;5.75;;
74233;SDS011;62591;55.764;37.718;2022-12-18T00:07:42;12.68;;;5.70;;
74233;SDS011;62591;55.764;37.718;2022-12-18T00:10:10;14.05;;;6.43;;
74233;SDS011;62591;55.764;37.718;2022-12-18T00:12:41;16.65;;;7.05;;
74233;SDS011;62591;55.764;37.718;2022-12-18T00:15:11;11.90;;;6.35;;
74233;SDS011;62591;55.764;37.718;2022-12-18T00:17:39;8.55;;;3.67;;
74233;SDS011;62591;55.764;37.718;2022-12-18T00:20:08;10.63;;;5.65;;
74233;SDS011;62591;55.764;37.718;2022-12-18T00:22:37;10.40;;;4.82;;
74233;SDS011;62591;55.764;37.718;2022-12-18T00:25:06;12.68;;;5.97;;
74233;SDS011;62591;55.764;37.718;2022-12-18T00:27:35;13.23;;;6.30;;
74233;SDS011;62591;55.764;37.718;2022-12-18T00:30:04;12.52;;;6.03;;
74233;SDS011;62591;55.764;37.718;2022-12-18T00:32:34;10.30;;;5.45;;
74233;SDS011;62591;55.764;37.718;2022-12-18T00:35:04;12.63;;;6.28;;
74233;SDS011;62591;55.764;37.718;2022-12-18T00:37:33;10.65;;;5.43;;
74233;SDS011;62591;55.764;37.718;2022-12-18T00:40:03;12.23;;;5.72;;
74233;SDS011;62591;55.764;37.718;2022-12-18T00:42:32;10.23;;;6.00;;
74233;SDS011;62591;55.764;37.718;2022-12-18T00:45:18;11.63;;;5.43;;
74233;SDS011;62591;55.764;37.718;2022-12-18T00:47:48;13.57;;;6.72;;
74233;SDS011;62591;55.764;37.718;2022-12-18T00:50:16;10.60;;;5.75;;
74233;SDS011;62591;55.764;37.718;2022-12-18T00:52:45;10.95;;;5.53;;
74233;SDS011;62591;55.764;37.718;2022-12-18T00:55:14;11.35;;;5.50;;
74233;SDS011;62591;55.764;37.718;2022-12-18T00:57:43;11.05;;;5.60;;
74233;SDS011;62591;55.764;37.718;2022-12-18T01:00:13;9.85;;;5.28;;
74233;SDS011;62591;55.764;37.718;2022-12-18T01:02:43;13.45;;;7.53;;
74233;SDS011;62591;55.764;37.718;2022-12-18T01:05:13;11.50;;;6.32;;
74233;SDS011;62591;55.764;37.718;2022-12-18T01:07:42;12.05;;;5.43;;
74233;SDS011;62591;55.764;37.718;2022-12-18T01:10:11;9.85;;;5.70;;
74233;SDS011;62591;55.764;37.718;2022-12-18T01:12:41;9.52;;;4.78;;
74233;SDS011;62591;55.764;37.718;2022-12-18T01:15:10;12.25;;;5.55;;
74233;SDS011;62591;55.764;37.718;2022-12-18T01:17:40;6.05;;;2.95;;
74233;SDS011;62591;55.764;37.718;2022-12-18T01:20:09;11.23;;;5.28;;
74233;SDS011;62591;55.764;37.718;2022-12-18T01:22:40;10.20;;;5.47;;
74233;SDS011;62591;55.764;37.718;2022-12-18T01:25:08;10.90;;;5.60;;
74233;SDS011;62591;55.764;37.718;2022-12-18T01:27:38;8.50;;;4.30;;
74233;SDS011;62591;55.764;37.718;2022-12-18T01:30:07;10.13;;;5.20;;
74233;SDS011;62591;55.764;37.718;2022-12-18T01:32:36;12.68;;;6.32;;
74233;SDS011;62591;55.764;37.718;2022-12-18T01:35:05;6.95;;;3.05;;
74233;SDS011;62591;55.764;37.718;2022-12-18T01:37:35;9.85;;;4.65;;
74233;SDS011;62591;55.764;37.718;2022-12-18T01:40:05;10.43;;;5.32;;
74233;SDS011;62591;55.764;37.718;2022-12-18T01:42:35;10.18;;;5.32;;
74233;SDS011;62591;55.764;37.718;2022-12-18T01:45:05;8.90;;;4.80;;
74233;SDS011;62591;55.764;37.718;2022-12-18T01:47:50;8.57;;;4.28;;
74233;SDS011;62591;55.764;37.718;2022-12-18T01:50:22;9.27;;;5.10;;
74233;SDS011;62591;55.764;37.718;2022-12-18T01:52:53;7.97;;;3.35;;
74233;SDS011;62591;55.764;37.718;2022-12-18T01:55:26;11.70;;;6.45;;
74233;SDS011;62591;55.764;37.718;2022-12-18T01:57:57;9.80;;;5.60;;
74233;SDS011;62591;55.764;37.718;2022-12-18T02:00:27;9.27;;;4.63;;
74233;SDS011;62591;55.764;37.718;2022-12-18T02:02:57;10.48;;;5.38;;
74233;SDS011;62591;55.764;37.718;2022-12-18T02:05:28;10.75;;;5.00;;
74233;SDS011;62591;55.764;37.718;2022-12-18T02:08:07;10.25;;;4.78;;
74233;SDS011;62591;55.764;37.718;2022-12-18T02:10:42;13.30;;;6.28;;
74233;SDS011;62591;55.764;37.718;2022-12-18T02:13:25;9.40;;;4.80;;
74233;SDS011;62591;55.764;37.718;2022-12-18T02:16:21;9.60;;;4.57;;
74233;SDS011;62591;55.764;37.718;2022-12-18T02:18:59;9.30;;;5.30;;
74233;SDS011;62591;55.764;37.718;2022-12-18T02:21:36;9.27;;;4.40;;
74233;SDS011;62591;55.764;37.718;2022-12-18T02:24:18;9.00;;;4.85;;
74233;SDS011;62591;55.764;37.718;2022-12-18T02:26:59;9.80;;;4.00;;
74233;SDS011;62591;55.764;37.718;2022-12-18T02:29:32;9.30;;;4.18;;
74233;SDS011;62591;55.764;37.718;2022-12-18T02:32:07;9.45;;;4.50;;
74233;SDS011;62591;55.764;37.718;2022-12-18T02:34:39;10.50;;;5.28;;
74233;SDS011;62591;55.764;37.718;2022-12-18T02:37:13;9.77;;;5.13;;
74233;SDS011;62591;55.764;37.718;2022-12-18T02:39:47;9.60;;;4.25;;
74233;SDS011;62591;55.764;37.718;2022-12-18T02:42:19;9.55;;;5.18;;
74233;SDS011;62591;55.764;37.718;2022-12-18T02:44:49;11.80;;;5.00;;
74233;SDS011;62591;55.764;37.718;2022-12-18T02:47:23;10.48;;;4.95;;
74233;SDS011;62591;55.764;37.718;2022-12-18T02:49:57;11.10;;;4.60;;
74233;SDS011;62591;55.764;37.718;2022-12-18T02:52:37;10.00;;;6.38;;
74233;SDS011;62591;55.764;37.718;2022-12-18T02:55:14;10.32;;;5.90;;
74233;SDS011;62591;55.764;37.718;2022-12-18T02:57:56;9.75;;;4.82;;
74233;SDS011;62591;55.764;37.718;2022-12-18T03:00:36;12.25;;;5.20;;
74233;SDS011;62591;55.764;37.718;2022-12-18T03:03:10;10.02;;;5.38;;
74233;SDS011;62591;55.764;37.718;2022-12-18T03:05:47;10.15;;;5.22;;
74233;SDS011;62591;55.764;37.718;2022-12-18T03:08:21;10.18;;;4.95;;
74233;SDS011;62591;55.764;37.718;2022-12-18T03:10:54;6.50;;;4.05;;
74233;SDS011;62591;55.764;37.718;2022-12-18T03:13:29;10.15;;;4.65;;
74233;SDS011;62591;55.764;37.718;2022-12-18T03:16:02;6.78;;;3.80;;
74233;SDS011;62591;55.764;37.718;2022-12-18T03:18:34;10.10;;;5.47;;
74233;SDS011;62591;55.764;37.718;2022-12-18T03:21:06;10.85;;;5.30;;
74233;SDS011;62591;55.764;37.718;2022-12-18T03:23:40;9.00;;;4.65;;
74233;SDS011;62591;55.764;37.718;2022-12-18T03:26:14;7.93;;;2.90;;
74233;SDS011;62591;55.764;37.718;2022-12-18T03:28:53;5.50;;;3.45;;
74233;SDS011;62591;55.764;37.718;2022-12-18T03:31:27;10.48;;;4.15;;
74233;SDS011;62591;55.764;37.718;2022-12-18T03:34:03;9.13;;;4.70;;
74233;SDS011;62591;55.764;37.718;2022-12-18T03:36:41;8.90;;;4.63;;
74233;SDS011;62591;55.764;37.718;2022-12-18T03:39:13;10.95;;;5.93;;
74233;SDS011;62591;55.764;37.718;2022-12-18T03:41:50;12.10;;;5.00;;
74233;SDS011;62591;55.764;37.718;2022-12-18T03:44:36;12.07;;;4.07;;
74233;SDS011;62591;55.764;37.718;2022-12-18T03:47:11;10.43;;;4.65;;
74233;SDS011;62591;55.764;37.718;2022-12-18T03:49:45;9.85;;;4.90;;
74233;SDS011;62591;55.764;37.718;2022-12-18T03:52:20;5.88;;;3.42;;
74233;SDS011;62591;55.764;37.718;2022-12-18T03:54:54;10.50;;;5.30;;
74233;SDS011;62591;55.764;37.718;2022-12-18T03:57:27;7.07;;;3.58;;
74233;SDS011;62591;55.764;37.718;2022-12-18T03:59:59;9.98;;;4.47;;
74233;SDS011;62591;55.764;37.718;2022-12-18T04:02:40;7.50;;;3.83;;
74233;SDS011;62591;55.764;37.718;2022-12-18T04:05:19;9.88;;;4.43;;
74233;SDS011;62591;55.764;37.718;2022-12-18T04:07:49;7.10;;;3.58;;
74233;SDS011;62591;55.764;37.718;2022-12-18T04:10:21;7.80;;;3.80;;
74233;SDS011;62591;55.764;37.718;2022-12-18T04:12:50;8.30;;;3.30;;
74233;SDS011;62591;55.764;37.718;2022-12-18T04:15:25;4.70;;;2.42;;
74233;SDS011;62591;55.764;37.718;2022-12-18T04:17:55;7.90;;;3.60;;
74233;SDS011;62591;55.764;37.718;2022-12-18T04:20:30;9.82;;;4.00;;
74233;SDS011;62591;55.764;37.718;2022-12-18T04:23:00;9.15;;;4.10;;
74233;SDS011;62591;55.764;37.718;2022-12-18T04:25:28;5.95;;;3.47;;
74233;SDS011;62591;55.764;37.718;2022-12-18T04:28:05;10.65;;;3.67;;
74233;SDS011;62591;55.764;37.718;2022-12-18T04:30:38;7.53;;;3.50;;
74233;SDS011;62591;55.764;37.718;2022-12-18T04:33:08;9.15;;;4.47;;
74233;SDS011;62591;55.764;37.718;2022-12-18T04:35:47;9.70;;;4.30;;
74233;SDS011;62591;55.764;37.718;2022-12-18T04:38:16;6.65;;;4.00;;
74233;SDS011;62591;55.764;37.718;2022-12-18T04:40:50;10.10;;;4.40;;
74233;SDS011;62591;55.764;37.718;2022-12-18T04:45:54;8.13;;;4.40;;
74233;SDS011;62591;55.764;37.718;2022-12-18T04:48:29;8.27;;;3.90;;
74233;SDS011;62591;55.764;37.718;2022-12-18T04:50:58;9.05;;;4.53;;
74233;SDS011;62591;55.764;37.718;2022-12-18T04:53:27;10.02;;;4.43;;
74233;SDS011;62591;55.764;37.718;2022-12-18T04:56:02;7.10;;;3.33;;
74233;SDS011;62591;55.764;37.718;2022-12-18T04:58:32;9.18;;;3.80;;
74233;SDS011;62591;55.764;37.718;2022-12-18T05:01:02;6.15;;;3.08;;
74233;SDS011;62591;55.764;37.718;2022-12-18T05:03:31;8.30;;;3.72;;
74233;SDS011;62591;55.764;37.718;2022-12-18T05:05:59;8.57;;;4.05;;
74233;SDS011;62591;55.764;37.718;2022-12-18T05:08:28;8.10;;;4.05;;
74233;SDS011;62591;55.764;37.718;2022-12-18T05:11:00;7.88;;;3.72;;
74233;SDS011;62591;55.764;37.718;2022-12-18T05:13:31;4.85;;;2.25;;
74233;SDS011;62591;55.764;37.718;2022-12-18T05:16:01;6.60;;;2.97;;
74233;SDS011;62591;55.764;37.718;2022-12-18T05:18:31;7.72;;;3.88;;
74233;SDS011;62591;55.764;37.718;2022-12-18T05:20:59;9.93;;;5.00;;
74233;SDS011;62591;55.764;37.718;2022-12-18T05:23:28;8.50;;;4.20;;
74233;SDS011;62591;55.764;37.718;2022-12-18T05:25:57;8.82;;;4.32;;
74233;SDS011;62591;55.764;37.718;2022-12-18T05:28:27;6.95;;;3.70;;
74233;SDS011;62591;55.764;37.718;2022-12-18T05:30:58;8.40;;;4.05;;
74233;SDS011;62591;55.764;37.718;2022-12-18T05:33:30;8.98;;;3.88;;
74233;SDS011;62591;55.764;37.718;2022-12-18T05:36:00;6.78;;;2.70;;
74233;SDS011;62591;55.764;37.718;2022-12-18T05:38:30;8.13;;;3.80;;
74233;SDS011;62591;55.764;37.718;2022-12-18T05:41:00;9.32;;;4.90;;
74233;SDS011;62591;55.764;37.718;2022-12-18T05:43:29;7.82;;;4.32;;
74233;SDS011;62591;55.764;37.718;2022-12-18T05:46:02;10.65;;;4.55;;
74233;SDS011;62591;55.764;37.718;2022-12-18T05:48:33;3.60;;;1.77;;
74233;SDS011;62591;55.764;37.718;2022-12-18T05:51:05;6.53;;;3.35;;
74233;SDS011;62591;55.764;37.718;2022-12-18T05:53:34;7.90;;;4.38;;
74233;SDS011;62591;55.764;37.718;2022-12-18T05:56:04;10.15;;;4.35;;
74233;SDS011;62591;55.764;37.718;2022-12-18T05:58:35;8.30;;;4.43;;
74233;SDS011;62591;55.764;37.718;2022-12-18T06:01:07;9.75;;;4.57;;
74233;SDS011;62591;55.764;37.718;2022-12-18T06:03:38;7.78;;;4.05;;
74233;SDS011;62591;55.764;37.718;2022-12-18T06:06:14;4.32;;;1.98;;
74233;SDS011;62591;55.764;37.718;2022-12-18T06:08:44;9.25;;;3.35;;
74233;SDS011;62591;55.764;37.718;2022-12-18T06:11:15;5.57;;;2.72;;
74233;SDS011;62591;55.764;37.718;2022-12-18T06:13:45;8.88;;;3.90;;
74233;SDS011;62591;55.764;37.718;2022-12-18T06:16:14;9.13;;;4.22;;
74233;SDS011;62591;55.764;37.718;2022-12-18T06:18:44;9.35;;;4.18;;
74233;SDS011;62591;55.764;37.718;2022-12-18T06:21:12;6.95;;;4.03;;
74233;SDS011;62591;55.764;37.718;2022-12-18T06:23:41;5.28;;;2.50;;
74233;SDS011;62591;55.764;37.718;2022-12-18T06:26:10;6.53;;;3.55;;
74233;SDS011;62591;55.764;37.718;2022-12-18T06:28:40;8.23;;;4.03;;
74233;SDS011;62591;55.764;37.718;2022-12-18T06:31:09;7.35;;;4.28;;
74233;SDS011;62591;55.764;37.718;2022-12-18T06:33:38;10.82;;;5.35;;
74233;SDS011;62591;55.764;37.718;2022-12-18T06:36:10;8.35;;;3.92;;
74233;SDS011;62591;55.764;37.718;2022-12-18T06:38:40;8.38;;;4.32;;
74233;SDS011;62591;55.764;37.718;2022-12-18T06:41:11;7.95;;;4.32;;
74233;SDS011;62591;55.764;37.718;2022-12-18T06:43:40;7.40;;;3.55;;
74233;SDS011;62591;55.764;37.718;2022-12-18T06:46:10;8.32;;;3.95;;
74233;SDS011;62591;55.764;37.718;2022-12-18T06:48:39;9.27;;;4.88;;
74233;SDS011;62591;55.764;37.718;2022-12-18T06:51:08;7.93;;;4.18;;
74233;SDS011;62591;55.764;37.718;2022-12-18T06:53:38;6.10;;;3.00;;
74233;SDS011;62591;55.764;37.718;2022-12-18T06:56:07;9.27;;;4.38;;
74233;SDS011;62591;55.764;37.718;2022-12-18T06:58:37;7.68;;;3.97;;
74233;SDS011;62591;55.764;37.718;2022-12-18T07:01:06;8.93;;;4.57;;
74233;SDS011;62591;55.764;37.718;2022-12-18T07:03:36;9.20;;;4.45;;
74233;SDS011;62591;55.764;37.718;2022-12-18T07:06:05;5.88;;;2.92;;
74233;SDS011;62591;55.764;37.718;2022-12-18T07:08:35;8.75;;;4.13;;
74233;SDS011;62591;55.764;37.718;2022-12-18T07:11:04;8.75;;;4.50;;
74233;SDS011;62591;55.764;37.718;2022-12-18T07:13:33;7.72;;;3.92;;
74233;SDS011;62591;55.764;37.718;2022-12-18T07:16:05;9.02;;;3.70;;
74233;SDS011;62591;55.764;37.718;2022-12-18T07:18:42;7.38;;;3.80;;
74233;SDS011;62591;55.764;37.718;2022-12-18T07:21:12;9.15;;;4.18;;
74233;SDS011;62591;55.764;37.718;2022-12-18T07:23:43;8.90;;;3.78;;
74233;SDS011;62591;55.764;37.718;2022-12-18T07:26:16;4.03;;;2.30;;
74233;SDS011;62591;55.764;37.718;2022-12-18T07:28:47;9.15;;;4.38;;
74233;SDS011;62591;55.764;37.718;2022-12-18T07:31:17;7.57;;;4.07;;
74233;SDS011;62591;55.764;37.718;2022-12-18T07:33:48;7.88;;;3.65;;
74233;SDS011;62591;55.764;37.718;2022-12-18T07:36:17;7.30;;;2.85;;
74233;SDS011;62591;55.764;37.718;2022-12-18T07:38:47;7.32;;;4.00;;
74233;SDS011;62591;55.764;37.718;2022-12-18T07:41:17;7.50;;;4.35;;
74233;SDS011;62591;55.764;37.718;2022-12-18T07:43:46;8.45;;;4.20;;
74233;SDS011;62591;55.764;37.718;2022-12-18T07:46:15;8.48;;;4.22;;
74233;SDS011;62591;55.764;37.718;2022-12-18T07:48:46;8.60;;;3.95;;
74233;SDS011;62591;55.764;37.718;2022-12-18T07:51:16;8.30;;;3.85;;
74233;SDS011;62591;55.764;37.718;2022-12-18T07:53:45;7.50;;;3.55;;
74233;SDS011;62591;55.764;37.718;2022-12-18T07:56:20;5.60;;;3.22;;
74233;SDS011;62591;55.764;37.718;2022-12-18T07:58:54;10.95;;;4.63;;
74233;SDS011;62591;55.764;37.718;2022-12-18T08:01:23;8.32;;;4.13;;
74233;SDS011;62591;55.764;37.718;2022-12-18T08:03:53;10.45;;;4.00;;
74233;SDS011;62591;55.764;37.718;2022-12-18T08:06:23;7.90;;;3.53;;
74233;SDS011;62591;55.764;37.718;2022-12-18T08:08:52;8.40;;;4.00;;
74233;SDS011;62591;55.764;37.718;2022-12-18T08:11:23;9.50;;;4.30;;
74233;SDS011;62591;55.764;37.718;2022-12-18T08:13:53;9.07;;;4.13;;
74233;SDS011;62591;55.764;37.718;2022-12-18T08:16:22;6.55;;;3.05;;
74233;SDS011;62591;55.764;37.718;2022-12-18T08:18:51;7.43;;;4.25;;
74233;SDS011;62591;55.764;37.718;2022-12-18T08:21:20;7.53;;;3.58;;
74233;SDS011;62591;55.764;37.718;2022-12-18T08:23:51;8.25;;;3.83;;
74233;SDS011;62591;55.764;37.718;2022-12-18T08:26:23;11.30;;;4.40;;
74233;SDS011;62591;55.764;37.718;2022-12-18T08:28:53;5.88;;;2.78;;
74233;SDS011;62591;55.764;37.718;2022-12-18T08:31:23;7.88;;;3.15;;
74233;SDS011;62591;55.764;37.718;2022-12-18T08:33:53;8.90;;;3.72;;
74233;SDS011;62591;55.764;37.718;2022-12-18T08:36:22;7.65;;;4.15;;
74233;SDS011;62591;55.764;37.718;2022-12-18T08:38:52;7.13;;;4.18;;
74233;SDS011;62591;55.764;37.718;2022-12-18T08:41:23;6.43;;;3.20;;
74233;SDS011;62591;55.764;37.718;2022-12-18T08:43:52;7.95;;;4.10;;
74233;SDS011;62591;55.764;37.718;2022-12-18T08:46:53;7.65;;;4.43;;
74233;SDS011;62591;55.764;37.718;2022-12-18T08:49:23;6.95;;;3.45;;
74233;SDS011;62591;55.764;37.718;2022-12-18T08:51:53;7.15;;;3.67;;
74233;SDS011;62591;55.764;37.718;2022-12-18T08:54:23;7.57;;;3.72;;
74233;SDS011;62591;55.764;37.718;2022-12-18T08:56:54;9.50;;;3.80;;
74233;SDS011;62591;55.764;37.718;2022-12-18T08:59:22;6.60;;;3.80;;
74233;SDS011;62591;55.764;37.718;2022-12-18T09:01:57;6.57;;;3.22;;
74233;SDS011;62591;55.764;37.718;2022-12-18T09:04:26;5.93;;;2.85;;
74233;SDS011;62591;55.764;37.718;2022-12-18T09:06:54;6.90;;;3.50;;
74233;SDS011;62591;55.764;37.718;2022-12-18T09:09:23;8.88;;;4.38;;
74233;SDS011;62591;55.764;37.718;2022-12-18T09:11:51;7.95;;;3.75;;
74233;SDS011;62591;55.764;37.718;2022-12-18T09:14:21;3.75;;;1.80;;
74233;SDS011;62591;55.764;37.718;2022-12-18T09:16:50;6.43;;;3.25;;
74233;SDS011;62591;55.764;37.718;2022-12-18T09:19:19;8.02;;;3.83;;
74233;SDS011;62591;55.764;37.718;2022-12-18T09:21:47;8.80;;;3.47;;
74233;SDS011;62591;55.764;37.718;2022-12-18T09:24:16;6.15;;;2.67;;
74233;SDS011;62591;55.764;37.718;2022-12-18T09:26:44;8.02;;;3.92;;
74233;SDS011;62591;55.764;37.718;2022-12-18T09:29:15;7.40;;;3.45;;
74233;SDS011;62591;55.764;37.718;2022-12-18T09:31:44;6.28;;;3.30;;
74233;SDS011;62591;55.764;37.718;2022-12-18T09:34:13;8.20;;;4.00;;
74233;SDS011;62591;55.764;37.718;2022-12-18T09:36:41;5.97;;;2.83;;
74233;SDS011;62591;55.764;37.718;2022-12-18T09:39:12;8.15;;;3.65;;
74233;SDS011;62591;55.764;37.718;2022-12-18T09:41:44;8.00;;;3.47;;
74233;SDS011;62591;55.764;37.718;2022-12-18T09:44:20;7.13;;;2.80;;
74233;SDS011;62591;55.764;37.718;2022-12-18T09:47:01;6.85;;;3.20;;
74233;SDS011;62591;55.764;37.718;2022-12-18T09:49:37;5.97;;;3.15;;
74233;SDS011;62591;55.764;37.718;2022-12-18T09:52:11;9.48;;;4.75;;
74233;SDS011;62591;55.764;37.718;2022-12-18T09:54:47;7.10;;;2.65;;
74233;SDS011;62591;55.764;37.718;2022-12-18T09:57:20;4.95;;;2.58;;
74233;SDS011;62591;55.764;37.718;2022-12-18T09:59:54;8.48;;;3.40;;
74233;SDS011;62591;55.764;37.718;2022-12-18T10:02:25;5.63;;;2.67;;
74233;SDS011;62591;55.764;37.718;2022-12-18T10:05:03;9.38;;;3.67;;
74233;SDS011;62591;55.764;37.718;2022-12-18T10:07:38;6.55;;;2.45;;
74233;SDS011;62591;55.764;37.718;2022-12-18T10:10:18;7.57;;;3.40;;
74233;SDS011;62591;55.764;37.718;2022-12-18T10:12:55;7.22;;;3.22;;
74233;SDS011;62591;55.764;37.718;2022-12-18T10:15:34;4.47;;;2.33;;
74233;SDS011;62591;55.764;37.718;2022-12-18T10:18:14;7.07;;;2.97;;
74233;SDS011;62591;55.764;37.718;2022-12-18T10:20:52;4.72;;;2.30;;
74233;SDS011;62591;55.764;37.718;2022-12-18T10:23:26;7.90;;;3.00;;
74233;SDS011;62591;55.764;37.718;2022-12-18T10:26:01;7.55;;;3.13;;
74233;SDS011;62591;55.764;37.718;2022-12-18T10:28:32;6.80;;;2.42;;
74233;SDS011;62591;55.764;37.718;2022-12-18T10:31:06;5.50;;;2.42;;
74233;SDS011;62591;55.764;37.718;2022-12-18T10:33:36;5.97;;;3.00;;
74233;SDS011;62591;55.764;37.718;2022-12-18T10:36:04;5.38;;;2.58;;
74233;SDS011;62591;55.764;37.718;2022-12-18T10:38:33;6.13;;;3.22;;
74233;SDS011;62591;55.764;37.718;2022-12-18T10:41:03;5.65;;;3.10;;
74233;SDS011;62591;55.764;37.718;2022-12-18T10:43:33;6.78;;;3.03;;
74233;SDS011;62591;55.764;37.718;2022-12-18T10:46:14;6.55;;;3.08;;
74233;SDS011;62591;55.764;37.718;2022-12-18T10:48:48;6.25;;;2.97;;
74233;SDS011;62591;55.764;37.718;2022-12-18T10:51:21;6.75;;;3.13;;
74233;SDS011;62591;55.764;37.718;2022-12-18T10:53:52;7.43;;;3.25;;
74233;SDS011;62591;55.764;37.718;2022-12-18T10:56:24;6.00;;;3.03;;
74233;SDS011;62591;55.764;37.718;2022-12-18T10:58:56;7.45;;;3.72;;
74233;SDS011;62591;55.764;37.718;2022-12-18T11:01:28;7.65;;;3.53;;
74233;SDS011;62591;55.764;37.718;2022-12-18T11:04:16;5.55;;;2.53;;
74233;SDS011;62591;55.764;37.718;2022-12-18T11:06:54;8.18;;;3.38;;
74233;SDS011;62591;55.764;37.718;2022-12-18T11:09:25;7.38;;;3.33;;
74233;SDS011;62591;55.764;37.718;2022-12-18T11:11:55;8.13;;;3.67;;
74233;SDS011;62591;55.764;37.718;2022-12-18T11:14:26;7.25;;;2.92;;
74233;SDS011;62591;55.764;37.718;2022-12-18T11:17:00;8.57;;;3.70;;
74233;SDS011;62591;55.764;37.718;2022-12-18T11:19:52;7.60;;;3.92;;
74233;SDS011;62591;55.764;37.718;2022-12-18T11:22:23;7.22;;;3.53;;
74233;SDS011;62591;55.764;37.718;2022-12-18T11:24:55;7.75;;;3.67;;
74233;SDS011;62591;55.764;37.718;2022-12-18T11:27:50;9.18;;;3.70;;
74233;SDS011;62591;55.764;37.718;2022-12-18T11:30:22;6.93;;;3.33;;
74233;SDS011;62591;55.764;37.718;2022-12-18T11:32:54;8.63;;;3.65;;
74233;SDS011;62591;55.764;37.718;2022-12-18T11:35:32;10.38;;;4.15;;
74233;SDS011;62591;55.764;37.718;2022-12-18T11:38:06;6.18;;;2.95;;
74233;SDS011;62591;55.764;37.718;2022-12-18T11:40:43;10.43;;;3.70;;
74233;SDS011;62591;55.764;37.718;2022-12-18T11:43:18;5.95;;;2.67;;
74233;SDS011;62591;55.764;37.718;2022-12-18T11:45:54;8.75;;;3.28;;
74233;SDS011;62591;55.764;37.718;2022-12-18T11:48:29;7.47;;;3.75;;
74233;SDS011;62591;55.764;37.718;2022-12-18T11:51:01;5.15;;;2.60;;
74233;SDS011;62591;55.764;37.718;2022-12-18T11:53:33;5.95;;;3.22;;
74233;SDS011;62591;55.764;37.718;2022-12-18T11:56:07;6.18;;;3.10;;
74233;SDS011;62591;55.764;37.718;2022-12-18T11:58:51;7.35;;;3.55;;
74233;SDS011;62591;55.764;37.718;2022-12-18T12:01:31;5.05;;;2.60;;
74233;SDS011;62591;55.764;37.718;2022-12-18T12:07:21;6.75;;;3.28;;
74233;SDS011;62591;55.764;37.718;2022-12-18T12:10:04;5.50;;;3.05;;
74233;SDS011;62591;55.764;37.718;2022-12-18T12:12:49;6.60;;;3.10;;
74233;SDS011;62591;55.764;37.718;2022-12-18T12:15:28;6.43;;;3.25;;
74233;SDS011;62591;55.764;37.718;2022-12-18T12:18:13;5.43;;;2.22;;
74233;SDS011;62591;55.764;37.718;2022-12-18T12:20:52;6.03;;;3.00;;
74233;SDS011;62591;55.764;37.718;2022-12-18T12:23:32;11.07;;;5.65;;
74233;SDS011;62591;55.764;37.718;2022-12-18T12:26:10;5.25;;;2.58;;
74233;SDS011;62591;55.764;37.718;2022-12-18T12:28:57;5.72;;;3.03;;
74233;SDS011;62591;55.764;37.718;2022-12-18T12:31:40;6.75;;;2.55;;
74233;SDS011;62591;55.764;37.718;2022-12-18T12:34:21;4.38;;;2.05;;
74233;SDS011;62591;55.764;37.718;2022-12-18T12:36:59;6.50;;;3.05;;
74233;SDS011;62591;55.764;37.718;2022-12-18T12:39:59;5.07;;;2.00;;
74233;SDS011;62591;55.764;37.718;2022-12-18T12:42:50;4.82;;;2.30;;
74233;SDS011;62591;55.764;37.718;2022-12-18T12:45:42;6.10;;;2.60;;
74233;SDS011;62591;55.764;37.718;2022-12-18T12:48:16;5.65;;;2.78;;
74233;SDS011;62591;55.764;37.718;2022-12-18T12:51:07;6.68;;;3.17;;
74233;SDS011;62591;55.764;37.718;2022-12-18T12:54:25;6.07;;;3.05;;
74233;SDS011;62591;55.764;37.718;2022-12-18T12:56:57;4.93;;;2.38;;
74233;SDS011;62591;55.764;37.718;2022-12-18T12:59:35;4.88;;;2.13;;
74233;SDS011;62591;55.764;37.718;2022-12-18T13:02:11;4.28;;;2.30;;
74233;SDS011;62591;55.764;37.718;2022-12-18T13:04:48;5.53;;;1.90;;
74233;SDS011;62591;55.764;37.718;2022-12-18T13:07:23;5.90;;;2.90;;
74233;SDS011;62591;55.764;37.718;2022-12-18T13:12:59;3.33;;;1.63;;
74233;SDS011;62591;55.764;37.718;2022-12-18T13:15:38;4.72;;;2.05;;
74233;SDS011;62591;55.764;37.718;2022-12-18T13:18:13;3.50;;;1.88;;
74233;SDS011;62591;55.764;37.718;2022-12-18T13:20:51;5.65;;;2.72;;
74233;SDS011;62591;55.764;37.718;2022-12-18T13:23:33;6.45;;;2.65;;
74233;SDS011;62591;55.764;37.718;2022-12-18T13:29:02;4.43;;;2.20;;
74233;SDS011;62591;55.764;37.718;2022-12-18T13:34:29;7.63;;;2.97;;
74233;SDS011;62591;55.764;37.718;2022-12-18T13:46:03;13.05;;;5.22;;
74233;SDS011;62591;55.764;37.718;2022-12-18T13:48:36;14.52;;;4.97;;
74233;SDS011;62591;55.764;37.718;2022-12-18T13:51:07;11.25;;;4.78;;
74233;SDS011;62591;55.764;37.718;2022-12-18T13:53:41;12.20;;;4.47;;
74233;SDS011;62591;55.764;37.718;2022-12-18T13:56:14;12.13;;;5.03;;
74233;SDS011;62591;55.764;37.718;2022-12-18T13:58:45;15.95;;;5.97;;
74233;SDS011;62591;55.764;37.718;2022-12-18T14:01:23;16.13;;;5.75;;
74233;SDS011;62591;55.764;37.718;2022-12-18T14:04:08;16.65;;;6.72;;
74233;SDS011;62591;55.764;37.718;2022-12-18T14:06:37;14.02;;;5.75;;
74233;SDS011;62591;55.764;37.718;2022-12-18T14:09:08;16.90;;;6.50;;
74233;SDS011;62591;55.764;37.718;2022-12-18T14:11:47;15.55;;;6.22;;
74233;SDS011;62591;55.764;37.718;2022-12-18T14:14:18;15.80;;;6.03;;
74233;SDS011;62591;55.764;37.718;2022-12-18T14:16:49;20.60;;;6.88;;
74233;SDS011;62591;55.764;37.718;2022-12-18T14:19:19;12.80;;;5.22;;
74233;SDS011;62591;55.764;37.718;2022-12-18T14:21:49;16.38;;;6.45;;
74233;SDS011;62591;55.764;37.718;2022-12-18T14:24:19;16.27;;;6.75;;
74233;SDS011;62591;55.764;37.718;2022-12-18T14:26:49;16.55;;;5.78;;
74233;SDS011;62591;55.764;37.718;2022-12-18T14:29:23;15.68;;;5.85;;
74233;SDS011;62591;55.764;37.718;2022-12-18T14:32:07;10.07;;;4.07;;
74233;SDS011;62591;55.764;37.718;2022-12-18T14:34:44;12.82;;;5.15;;
74233;SDS011;62591;55.764;37.718;2022-12-18T14:37:14;14.27;;;4.25;;
74233;SDS011;62591;55.764;37.718;2022-12-18T14:39:52;14.77;;;5.97;;
74233;SDS011;62591;55.764;37.718;2022-12-18T14:42:23;9.65;;;3.60;;
74233;SDS011;62591;55.764;37.718;2022-12-18T14:48:08;12.27;;;4.95;;
74233;SDS011;62591;55.764;37.718;2022-12-18T14:50:55;8.77;;;3.83;;
74233;SDS011;62591;55.764;37.718;2022-12-18T14:53:30;10.60;;;4.60;;
74233;SDS011;62591;55.764;37.718;2022-12-18T14:58:53;7.82;;;3.70;;
74233;SDS011;62591;55.764;37.718;2022-12-18T15:01:26;12.43;;;4.05;;
74233;SDS011;62591;55.764;37.718;2022-12-18T15:03:56;8.55;;;3.92;;
74233;SDS011;62591;55.764;37.718;2022-12-18T15:06:27;10.68;;;3.97;;
74233;SDS011;62591;55.764;37.718;2022-12-18T15:09:01;8.00;;;3.30;;
74233;SDS011;62591;55.764;37.718;2022-12-18T15:11:35;7.28;;;3.17;;
74233;SDS011;62591;55.764;37.718;2022-12-18T15:14:28;8.77;;;3.92;;
74233;SDS011;62591;55.764;37.718;2022-12-18T15:17:01;8.13;;;3.63;;
74233;SDS011;62591;55.764;37.718;2022-12-18T15:19:34;4.95;;;2.17;;
74233;SDS011;62591;55.764;37.718;2022-12-18T15:22:13;6.75;;;3.15;;
74233;SDS011;62591;55.764;37.718;2022-12-18T15:24:48;6.20;;;3.22;;
74233;SDS011;62591;55.764;37.718;2022-12-18T15:27:21;7.07;;;3.30;;
74233;SDS011;62591;55.764;37.718;2022-12-18T15:32:49;5.07;;;2.72;;
74233;SDS011;62591;55.764;37.718;2022-12-18T15:35:20;6.22;;;3.20;;
74233;SDS011;62591;55.764;37.718;2022-12-18T15:37:49;6.60;;;2.95;;